Tropical Cyclones
[Index]
Main Index Home Page Stock Weather Photos Extreme Storms Discussion Storm News and Storm Chasing Reports Tropical Cyclones / Hurricanes / Typhoons Weather Data and Links Wild Fires / Bushfires Weather Observation Techniques Weather Picture Catalogue Tornado Pictures and Reports Stock Video Footage and DVDs for sale
Season 1989-1990 Tropical Cyclone IVOR Track Map
Season 1989-1990 Summaries: [BoM-AU] [JTWC-AU] [JTWC-SIO] [JTWC-SPAC] [JTWC-SH]
<<- Previous TC | BoM 1989-1990 Season | Next TC ->>

click for intensity scale information  Lat/long Grid: Show Hide

 Date Labels: Show Hide

Bureau of Meteorology Tropical Cyclone Data

Name: IVOR
Number: 729 / 198990_10

16 Mar 1990 00:00 UTC to 26 Mar 1990 12:00 UTC

    date/time    lat    long    hPa   cat  kts
1990-03-16 00   15.8   160.8    995    1    21          
1990-03-16 06   16.8   158.8    995    1    27          
1990-03-16 12   17.0   156.8    992    1    35          
1990-03-16 18   16.6   155.2    992    1    37          
1990-03-17 00   16.1   153.8    990    1    41          
1990-03-17 06   15.3   152.1    990    1    43          
1990-03-17 12   14.4   150.7    984    2    49          
1990-03-17 18   14.2   150.1    980    2    54          
1990-03-18 00   14.1   148.9    976    2    60          
1990-03-18 06   14.0   147.9    971    2    62          
1990-03-18 12   13.6   147.5    969    3    64          
1990-03-18 18   13.5   146.9    966    3    70          
1990-03-19 00   14.0   146.0    965    3    70          
1990-03-19 06   14.1   145.0    970    3    64          
1990-03-19 12   14.1   144.2    980    2    54          
1990-03-19 18   14.0   143.4    983    2    51          
1990-03-20 00   13.8   142.8    986    1    49          
1990-03-20 06   13.9   142.4    988    1    47          
1990-03-20 12   14.0   141.8    988    1    47          
1990-03-20 18   14.0   141.5    986    1    49          
1990-03-21 00   14.2   141.5    984    2    51          
1990-03-21 06   14.8   141.5    988    1    47          
1990-03-21 12   15.1   141.5    992    1    41          
1990-03-21 18   15.2   141.9    994    1    35          
1990-03-22 00   15.3   142.7   1000         29          
1990-03-22 06   15.5   143.6    998         33          
1990-03-22 12   15.7   144.3    999         29          
1990-03-22 18   16.2   145.1    999         29          
1990-03-23 00   16.9   145.9   1001         25          
1990-03-23 06   17.1   145.4    999         27          
1990-03-23 12   17.0   146.2   1001         21          
1990-03-23 18   17.3   146.9    999         21          
1990-03-24 00   18.3   146.9   1000         21          
1990-03-24 06   19.4   147.3   1000         21          
1990-03-24 12   19.9   147.5   1002         19          
1990-03-24 18   20.1   147.9   1002         19          
1990-03-25 00   20.7   148.1   1005         16          
1990-03-25 06   20.9   148.8   1005         16          
1990-03-25 12   20.6   149.6   1006         16          
1990-03-25 18   21.0   149.9   1006         16          
1990-03-26 00   21.6   149.3   1008         12          
1990-03-26 06   22.0   147.9   1008         12          
1990-03-26 12   21.9   146.8   1008         6          
Winds are 10-min average.

Tropical cyclone tracks developed by Michael Bath using data from the Bureau of Meteorology and Google Maps.


[Australian Severe Weather index] [Copyright Notice] [Email Contacts] [Search This Site] [Privacy Policy]
Document: tropical_cyclone_ivor.htm Updated: 30 May 2013